Time;durP1;ratioP1;P1;durP2;ratioP2;P2;SDS_P1;SDS_P2;PMS_P1;PMS_P2;Temp;Humidity;BMP_temperature;BMP_pressure;BME280_temperature;BME280_humidity;BME280_pressure;Samples;Min_cycle;Max_cycle;Signal;HPM_P1;HPM_P2
2023/02/09 00:00:53;;;;;;;0.50;0.50;;;;;;;;;;5038668;28;20519;-60
2023/02/09 00:03:20;;;;;;;0.47;0.47;;;;;;;;;;5053133;28;20239;-61
2023/02/09 00:05:48;;;;;;;0.40;0.40;;;;;;;;;;5038143;28;20258;-60
2023/02/09 00:08:14;;;;;;;0.40;0.40;;;;;;;;;;5053453;28;20533;-60
2023/02/09 00:10:40;;;;;;;0.40;0.40;;;;;;;;;;5037451;28;20240;-60
2023/02/09 00:13:24;;;;;;;0.40;0.40;;;;;;;;;;5054567;28;20346;-59
2023/02/09 00:15:51;;;;;;;0.40;0.40;;;;;;;;;;5038563;28;20263;-61
2023/02/09 00:18:17;;;;;;;0.40;0.40;;;;;;;;;;5052873;28;20508;-61
2023/02/09 00:20:44;;;;;;;0.40;0.40;;;;;;;;;;5038229;28;20266;-62
2023/02/09 00:23:11;;;;;;;0.40;0.40;;;;;;;;;;5053919;28;20236;-63
2023/02/09 00:25:38;;;;;;;0.40;0.40;;;;;;;;;;5040407;28;20314;-63
2023/02/09 00:28:05;;;;;;;0.40;0.40;;;;;;;;;;5058057;28;20211;-62
2023/02/09 00:30:31;;;;;;;0.53;0.53;;;;;;;;;;5039479;28;20506;-62
2023/02/09 00:32:57;;;;;;;0.40;0.40;;;;;;;;;;5059029;28;20602;-63
2023/02/09 00:35:24;;;;;;;0.40;0.40;;;;;;;;;;5038404;28;20531;-63
2023/02/09 00:37:51;;;;;;;0.50;0.50;;;;;;;;;;5060031;28;20461;-63
2023/02/09 00:40:18;;;;;;;0.40;0.40;;;;;;;;;;5037745;28;20239;-63
2023/02/09 00:42:45;;;;;;;0.40;0.40;;;;;;;;;;5060821;28;20246;-63
2023/02/09 00:45:12;;;;;;;0.70;0.70;;;;;;;;;;5037417;28;20400;-63
2023/02/09 00:47:41;;;;;;;0.40;0.40;;;;;;;;;;5061473;28;20461;-63
2023/02/09 00:50:08;;;;;;;0.40;0.40;;;;;;;;;;5041145;28;20236;-61
2023/02/09 00:52:35;;;;;;;0.40;0.40;;;;;;;;;;5061742;28;20219;-64
2023/02/09 00:55:01;;;;;;;0.40;0.40;;;;;;;;;;5046327;28;20257;-63
2023/02/09 00:57:29;;;;;;;0.40;0.40;;;;;;;;;;5051631;28;20306;-63
2023/02/09 00:59:55;;;;;;;0.40;0.40;;;;;;;;;;5046561;28;20373;-63
2023/02/09 01:02:22;;;;;;;0.40;0.40;;;;;;;;;;5051442;28;20250;-62
2023/02/09 01:04:48;;;;;;;0.50;0.50;;;;;;;;;;5046170;28;20215;-63
2023/02/09 01:07:14;;;;;;;0.40;0.40;;;;;;;;;;5051411;28;20239;-62
2023/02/09 01:09:41;;;;;;;1.80;1.70;;;;;;;;;;5046070;28;20227;-62
2023/02/09 01:12:07;;;;;;;0.47;0.47;;;;;;;;;;5051308;28;20254;-63
2023/02/09 01:14:35;;;;;;;0.50;0.50;;;;;;;;;;5045921;28;20236;-62
2023/02/09 01:17:01;;;;;;;0.43;0.43;;;;;;;;;;5050611;28;20250;-62
2023/02/09 01:19:28;;;;;;;0.50;0.50;;;;;;;;;;5046636;28;20231;-63
2023/02/09 01:21:56;;;;;;;3.83;3.70;;;;;;;;;;5049696;28;20243;-62
2023/02/09 01:24:22;;;;;;;0.50;0.50;;;;;;;;;;5047404;28;20456;-62
2023/02/09 01:26:49;;;;;;;0.50;0.50;;;;;;;;;;5050356;28;20237;-63
2023/02/09 01:29:17;;;;;;;0.40;0.40;;;;;;;;;;5048157;28;20273;-63
2023/02/09 01:31:46;;;;;;;0.50;0.50;;;;;;;;;;5048025;28;20581;-62
2023/02/09 01:34:13;;;;;;;0.40;0.40;;;;;;;;;;5048374;28;20243;-62
2023/02/09 01:36:40;;;;;;;0.40;0.40;;;;;;;;;;5047391;28;20258;-63
2023/02/09 01:39:06;;;;;;;0.40;0.40;;;;;;;;;;5048876;28;20448;-63
2023/02/09 01:41:33;;;;;;;0.50;0.50;;;;;;;;;;5046177;28;20245;-63
2023/02/09 01:44:00;;;;;;;0.40;0.40;;;;;;;;;;5050033;28;20236;-63
2023/02/09 01:46:30;;;;;;;0.40;0.40;;;;;;;;;;5045887;28;20515;-62
2023/02/09 01:49:05;;;;;;;0.50;0.50;;;;;;;;;;5051267;28;20208;-63
2023/02/09 01:51:32;;;;;;;0.40;0.40;;;;;;;;;;5046885;28;20242;-62
2023/02/09 01:54:05;;;;;;;0.83;0.83;;;;;;;;;;5050912;28;20292;-62
2023/02/09 01:56:31;;;;;;;0.40;0.40;;;;;;;;;;5046398;28;20238;-63
2023/02/09 01:58:58;;;;;;;0.50;0.50;;;;;;;;;;5050445;28;20274;-62
2023/02/09 02:01:25;;;;;;;0.40;0.40;;;;;;;;;;5045590;28;20242;-62
2023/02/09 02:03:52;;;;;;;0.40;0.40;;;;;;;;;;5050524;28;20583;-63
2023/02/09 02:06:20;;;;;;;0.40;0.40;;;;;;;;;;5044014;28;20314;-62
2023/02/09 02:08:48;;;;;;;0.50;0.50;;;;;;;;;;5051962;28;20210;-62
2023/02/09 02:11:16;;;;;;;0.50;0.50;;;;;;;;;;5043899;28;20240;-63
2023/02/09 02:13:42;;;;;;;0.50;0.50;;;;;;;;;;5051470;28;20235;-62
2023/02/09 02:16:14;;;;;;;0.40;0.40;;;;;;;;;;5042526;28;20254;-62
2023/02/09 02:18:54;;;;;;;0.50;0.50;;;;;;;;;;5051962;28;20276;-62
2023/02/09 02:21:39;;;;;;;0.40;0.40;;;;;;;;;;5044648;28;20246;-63
2023/02/09 02:24:14;;;;;;;0.47;0.47;;;;;;;;;;5050419;28;20427;-61
2023/02/09 02:26:54;;;;;;;0.50;0.50;;;;;;;;;;5046955;28;20304;-63
2023/02/09 02:29:32;;;;;;;0.40;0.40;;;;;;;;;;5046766;28;20254;-63
2023/02/09 02:32:20;;;;;;;0.40;0.40;;;;;;;;;;5048592;28;20250;-63
2023/02/09 02:34:50;;;;;;;0.50;0.50;;;;;;;;;;5044863;28;20264;-62
2023/02/09 02:37:29;;;;;;;0.50;0.50;;;;;;;;;;5049595;28;20251;-63
2023/02/09 02:39:58;;;;;;;0.40;0.40;;;;;;;;;;5044256;28;20227;-63
2023/02/09 02:45:12;;;;;;;0.50;0.50;;;;;;;;;;5034397;28;20192;-63
2023/02/09 02:47:42;;;;;;;0.50;0.50;;;;;;;;;;5058207;28;20295;-62
2023/02/09 02:50:11;;;;;;;0.50;0.50;;;;;;;;;;5037114;28;20247;-62
2023/02/09 02:52:39;;;;;;;21.33;10.33;;;;;;;;;;5061567;28;20291;-62
2023/02/09 02:55:08;;;;;;;0.40;0.40;;;;;;;;;;5043957;28;20390;-62
2023/02/09 02:57:36;;;;;;;0.43;0.43;;;;;;;;;;5032774;28;20497;-62
2023/02/09 03:00:05;;;;;;;0.40;0.40;;;;;;;;;;5044140;28;20214;-62
2023/02/09 03:02:33;;;;;;;5.93;5.70;;;;;;;;;;5049222;28;20243;-62
2023/02/09 03:05:02;;;;;;;0.50;0.50;;;;;;;;;;5044113;28;20504;-62
2023/02/09 03:07:28;;;;;;;0.50;0.50;;;;;;;;;;5048988;28;20289;-63
2023/02/09 03:09:55;;;;;;;0.50;0.50;;;;;;;;;;5044001;28;20207;-63
2023/02/09 03:12:29;;;;;;;0.50;0.50;;;;;;;;;;5049009;28;20308;-63
2023/02/09 03:15:03;;;;;;;0.50;0.50;;;;;;;;;;5044035;28;20231;-62
2023/02/09 03:17:33;;;;;;;0.50;0.50;;;;;;;;;;5049035;28;20304;-63
2023/02/09 03:20:05;;;;;;;0.40;0.40;;;;;;;;;;5043946;28;20218;-63
2023/02/09 03:22:34;;;;;;;0.50;0.50;;;;;;;;;;5048866;28;20491;-63
2023/02/09 03:25:04;;;;;;;0.50;0.50;;;;;;;;;;5043564;28;20278;-70
2023/02/09 03:27:33;;;;;;;0.50;0.50;;;;;;;;;;5048864;28;20240;-62
2023/02/09 03:30:03;;;;;;;0.40;0.40;;;;;;;;;;5043457;28;20468;-62
2023/02/09 03:32:29;;;;;;;0.77;0.77;;;;;;;;;;5049081;28;20309;-63
2023/02/09 03:34:56;;;;;;;0.50;0.50;;;;;;;;;;5043664;28;20247;-63
2023/02/09 03:37:24;;;;;;;0.50;0.50;;;;;;;;;;5048620;28;20301;-62
2023/02/09 03:39:50;;;;;;;0.40;0.40;;;;;;;;;;5043664;28;20587;-63
2023/02/09 03:42:17;;;;;;;0.50;0.50;;;;;;;;;;5048723;28;20246;-62
2023/02/09 03:44:44;;;;;;;0.50;0.50;;;;;;;;;;5043285;28;20298;-63
2023/02/09 03:47:10;;;;;;;1.90;1.90;;;;;;;;;;5048484;28;20306;-63
2023/02/09 03:49:38;;;;;;;1.57;1.53;;;;;;;;;;5043272;28;20274;-63
2023/02/09 03:52:06;;;;;;;0.50;0.50;;;;;;;;;;5048324;28;20242;-63
2023/02/09 03:54:34;;;;;;;3.10;1.97;;;;;;;;;;5043696;28;20279;-63
2023/02/09 03:57:00;;;;;;;0.50;0.50;;;;;;;;;;5047688;28;20310;-62
2023/02/09 03:59:27;;;;;;;0.57;0.57;;;;;;;;;;5048016;28;20234;-63
2023/02/09 04:01:54;;;;;;;1.03;1.03;;;;;;;;;;5050856;28;20306;-63
2023/02/09 04:04:21;;;;;;;0.50;0.50;;;;;;;;;;5048876;28;20239;-63
2023/02/09 04:06:47;;;;;;;0.50;0.50;;;;;;;;;;5049900;28;20254;-63
2023/02/09 04:09:14;;;;;;;0.63;0.63;;;;;;;;;;5049410;28;20274;-63
2023/02/09 04:11:42;;;;;;;0.50;0.50;;;;;;;;;;5048881;28;20242;-62
2023/02/09 04:14:08;;;;;;;0.50;0.50;;;;;;;;;;5050391;28;20287;-63
2023/02/09 04:16:35;;;;;;;0.50;0.50;;;;;;;;;;5048226;28;20613;-62
2023/02/09 04:19:02;;;;;;;0.50;0.50;;;;;;;;;;5050876;28;20454;-63
2023/02/09 04:21:28;;;;;;;0.50;0.50;;;;;;;;;;5047159;28;20314;-63
2023/02/09 04:23:54;;;;;;;0.50;0.50;;;;;;;;;;5051941;28;20273;-62
2023/02/09 04:26:21;;;;;;;0.90;0.90;;;;;;;;;;5046215;28;20273;-63
2023/02/09 04:28:48;;;;;;;3.37;3.27;;;;;;;;;;5052448;28;20298;-63
2023/02/09 04:31:15;;;;;;;1.40;1.40;;;;;;;;;;5045457;28;20501;-62
2023/02/09 04:33:41;;;;;;;0.50;0.50;;;;;;;;;;5053326;28;20214;-62
2023/02/09 04:36:08;;;;;;;0.50;0.50;;;;;;;;;;5044162;28;20247;-62
2023/02/09 04:38:35;;;;;;;2.83;2.10;;;;;;;;;;5054189;28;20235;-62
2023/02/09 04:41:02;;;;;;;0.63;0.63;;;;;;;;;;5043365;28;20301;-63
2023/02/09 04:43:29;;;;;;;0.50;0.50;;;;;;;;;;5054588;28;20276;-61
2023/02/09 04:45:56;;;;;;;1.17;1.17;;;;;;;;;;5042459;28;20302;-62
2023/02/09 04:48:24;;;;;;;0.50;0.50;;;;;;;;;;5055356;28;20244;-63
2023/02/09 04:50:50;;;;;;;0.60;0.60;;;;;;;;;;5041638;28;20304;-62
2023/02/09 04:53:17;;;;;;;0.50;0.50;;;;;;;;;;5056133;28;20230;-63
2023/02/09 04:55:44;;;;;;;3.23;3.07;;;;;;;;;;5040601;28;20260;-62
2023/02/09 05:00:54;;;;;;;1.60;1.60;;;;;;;;;;5042014;28;20245;-63
2023/02/09 05:03:24;;;;;;;1.90;1.90;;;;;;;;;;5055281;28;20277;-62
2023/02/09 05:05:53;;;;;;;0.50;0.50;;;;;;;;;;5041543;28;20545;-64
2023/02/09 05:08:19;;;;;;;2.20;2.10;;;;;;;;;;5055192;28;20303;-62
2023/02/09 05:10:46;;;;;;;4.53;4.20;;;;;;;;;;5039998;28;20249;-62
2023/02/09 05:13:12;;;;;;;0.50;0.50;;;;;;;;;;5056372;28;20393;-63
2023/02/09 05:15:38;;;;;;;0.60;0.60;;;;;;;;;;5039951;28;20284;-63
2023/02/09 05:18:05;;;;;;;4.10;3.90;;;;;;;;;;5057319;28;20234;-63
2023/02/09 05:20:35;;;;;;;0.50;0.50;;;;;;;;;;5038895;28;20254;-62
2023/02/09 05:23:01;;;;;;;1.33;1.33;;;;;;;;;;5057735;28;20241;-62
2023/02/09 05:25:28;;;;;;;0.80;0.80;;;;;;;;;;5038107;28;20283;-62
2023/02/09 05:27:54;;;;;;;0.93;0.93;;;;;;;;;;5058304;28;20234;-64
2023/02/09 05:30:20;;;;;;;2.40;2.40;;;;;;;;;;5037127;28;20217;-62
2023/02/09 05:32:47;;;;;;;0.50;0.50;;;;;;;;;;5058968;28;20297;-62
2023/02/09 05:35:13;;;;;;;0.50;0.50;;;;;;;;;;5036349;28;20556;-61
2023/02/09 05:37:41;;;;;;;0.50;0.50;;;;;;;;;;5060356;28;20429;-61
2023/02/09 05:40:08;;;;;;;0.50;0.50;;;;;;;;;;5040602;28;20231;-63
2023/02/09 05:42:35;;;;;;;0.70;0.70;;;;;;;;;;5060766;28;20221;-63
2023/02/09 05:45:01;;;;;;;0.60;0.60;;;;;;;;;;5045396;28;20206;-64
2023/02/09 05:47:28;;;;;;;0.60;0.60;;;;;;;;;;5050763;28;20304;-62
2023/02/09 05:49:54;;;;;;;0.50;0.50;;;;;;;;;;5045212;28;20203;-63
2023/02/09 05:52:21;;;;;;;0.50;0.50;;;;;;;;;;5050689;28;20643;-62
2023/02/09 05:54:49;;;;;;;0.50;0.50;;;;;;;;;;5045202;28;20208;-63
2023/02/09 05:57:19;;;;;;;0.67;0.67;;;;;;;;;;5050525;28;20254;-63
2023/02/09 05:59:45;;;;;;;0.50;0.50;;;;;;;;;;5044938;28;20277;-62
2023/02/09 06:02:11;;;;;;;0.50;0.50;;;;;;;;;;5050328;28;20459;-63
2023/02/09 06:04:38;;;;;;;0.50;0.50;;;;;;;;;;5045021;28;20445;-62
2023/02/09 06:07:04;;;;;;;0.50;0.50;;;;;;;;;;5049779;28;20241;-63
2023/02/09 06:09:31;;;;;;;0.40;0.40;;;;;;;;;;5045138;28;20207;-63
2023/02/09 06:11:58;;;;;;;0.50;0.50;;;;;;;;;;5048786;28;20261;-63
2023/02/09 06:14:25;;;;;;;0.63;0.63;;;;;;;;;;5045985;28;20238;-63
2023/02/09 06:16:51;;;;;;;0.40;0.40;;;;;;;;;;5047983;28;20589;-63
2023/02/09 06:19:19;;;;;;;1.83;1.83;;;;;;;;;;5046909;28;20252;-62
2023/02/09 06:21:45;;;;;;;0.60;0.60;;;;;;;;;;5046122;28;20305;-63
2023/02/09 06:24:12;;;;;;;0.50;0.50;;;;;;;;;;5047678;28;20279;-63
2023/02/09 06:26:39;;;;;;;0.60;0.60;;;;;;;;;;5046310;28;20287;-62
2023/02/09 06:29:08;;;;;;;0.50;0.50;;;;;;;;;;5048083;28;20294;-63
2023/02/09 06:31:34;;;;;;;0.50;0.50;;;;;;;;;;5045606;28;20292;-63
2023/02/09 06:34:01;;;;;;;0.50;0.50;;;;;;;;;;5048928;28;20204;-63
2023/02/09 06:36:27;;;;;;;0.60;0.60;;;;;;;;;;5044587;28;20519;-63
2023/02/09 06:38:53;;;;;;;1.53;1.53;;;;;;;;;;5049606;28;20275;-63
2023/02/09 06:41:20;;;;;;;1.00;1.00;;;;;;;;;;5043473;28;20333;-62
2023/02/09 06:43:46;;;;;;;0.50;0.50;;;;;;;;;;5050460;28;20206;-63
2023/02/09 06:46:15;;;;;;;0.50;0.50;;;;;;;;;;5042648;28;20299;-62
2023/02/09 06:48:41;;;;;;;2.80;2.70;;;;;;;;;;5051067;28;20478;-62
2023/02/09 06:51:09;;;;;;;0.60;0.60;;;;;;;;;;5041867;28;20250;-64
2023/02/09 06:53:35;;;;;;;0.50;0.50;;;;;;;;;;5052080;28;20274;-63
2023/02/09 06:56:02;;;;;;;0.50;0.50;;;;;;;;;;5041109;28;20249;-63
2023/02/09 06:58:28;;;;;;;0.67;0.67;;;;;;;;;;5052637;28;20254;-62
2023/02/09 07:00:55;;;;;;;0.83;0.83;;;;;;;;;;5039771;28;20299;-63
2023/02/09 07:03:22;;;;;;;0.53;0.53;;;;;;;;;;5053480;28;20260;-62
2023/02/09 07:05:49;;;;;;;0.70;0.70;;;;;;;;;;5039182;28;20238;-63
2023/02/09 07:08:15;;;;;;;0.70;0.70;;;;;;;;;;5053983;28;20297;-63
2023/02/09 07:10:41;;;;;;;0.60;0.60;;;;;;;;;;5038001;28;20304;-63
2023/02/09 07:13:08;;;;;;;0.50;0.50;;;;;;;;;;5054913;28;20402;-63
2023/02/09 07:15:34;;;;;;;1.10;1.10;;;;;;;;;;5037015;28;20242;-63
2023/02/09 07:18:01;;;;;;;0.50;0.50;;;;;;;;;;5055681;28;20231;-62
2023/02/09 07:20:28;;;;;;;1.60;1.60;;;;;;;;;;5036105;28;20591;-62
2023/02/09 07:22:55;;;;;;;4.97;4.77;;;;;;;;;;5056660;28;20247;-63
2023/02/09 07:25:21;;;;;;;0.50;0.50;;;;;;;;;;5035174;28;20278;-63
2023/02/09 07:27:47;;;;;;;0.40;0.40;;;;;;;;;;5057370;28;20457;-63
2023/02/09 07:30:14;;;;;;;1.33;1.33;;;;;;;;;;5034090;28;20282;-62
2023/02/09 07:32:41;;;;;;;4.10;3.90;;;;;;;;;;5057342;28;20246;-63
2023/02/09 07:35:08;;;;;;;0.50;0.50;;;;;;;;;;5039644;28;20207;-63
2023/02/09 07:37:35;;;;;;;0.50;0.50;;;;;;;;;;5058838;28;20310;-62
2023/02/09 07:40:02;;;;;;;0.50;0.50;;;;;;;;;;5043655;28;20270;-63
2023/02/09 07:42:28;;;;;;;0.50;0.50;;;;;;;;;;5048734;28;20433;-63
2023/02/09 07:44:55;;;;;;;5.10;1.90;;;;;;;;;;5043574;28;20477;-64
2023/02/09 07:47:21;;;;;;;0.50;0.50;;;;;;;;;;5048733;28;20507;-63
2023/02/09 07:49:47;;;;;;;0.50;0.50;;;;;;;;;;5043378;28;20254;-63
2023/02/09 07:52:15;;;;;;;1.90;1.90;;;;;;;;;;5046970;28;20527;-63
2023/02/09 07:54:43;;;;;;;1.17;1.17;;;;;;;;;;5044326;28;20230;-63
2023/02/09 07:57:11;;;;;;;0.50;0.50;;;;;;;;;;5048499;28;20254;-62
2023/02/09 07:59:38;;;;;;;0.90;0.90;;;;;;;;;;5043521;28;20235;-63
2023/02/09 08:02:04;;;;;;;0.40;0.40;;;;;;;;;;5048070;28;20255;-63
2023/02/09 08:04:31;;;;;;;1.27;1.27;;;;;;;;;;5043701;28;20450;-62
2023/02/09 08:06:57;;;;;;;0.60;0.60;;;;;;;;;;5047228;28;20313;-66
2023/02/09 08:09:23;;;;;;;0.40;0.40;;;;;;;;;;5044431;28;20228;-61
2023/02/09 08:11:54;;;;;;;0.43;0.43;;;;;;;;;;5045944;28;20266;-60
2023/02/09 08:14:22;;;;;;;0.63;0.63;;;;;;;;;;5045075;28;20216;-63
2023/02/09 08:16:49;;;;;;;0.40;0.40;;;;;;;;;;5045906;28;20512;-63
2023/02/09 08:19:17;;;;;;;0.40;0.40;;;;;;;;;;5045464;28;20201;-63
2023/02/09 08:21:45;;;;;;;0.40;0.40;;;;;;;;;;5044965;28;20497;-62
2023/02/09 08:24:12;;;;;;;0.40;0.40;;;;;;;;;;5046265;28;20235;-61
2023/02/09 08:26:41;;;;;;;0.50;0.50;;;;;;;;;;5044700;28;20374;-61
2023/02/09 08:29:10;;;;;;;0.40;0.40;;;;;;;;;;5045980;28;20548;-62
2023/02/09 08:31:45;;;;;;;0.83;0.83;;;;;;;;;;5044280;28;20326;-63
2023/02/09 08:34:14;;;;;;;0.40;0.40;;;;;;;;;;5045690;28;20204;-62
2023/02/09 08:36:40;;;;;;;0.40;0.40;;;;;;;;;;5044838;28;20249;-62
2023/02/09 08:39:07;;;;;;;0.40;0.40;;;;;;;;;;5045937;28;20200;-62
2023/02/09 08:41:33;;;;;;;0.40;0.40;;;;;;;;;;5043965;28;20564;-62
2023/02/09 08:44:00;;;;;;;0.40;0.40;;;;;;;;;;5047044;28;20208;-62
2023/02/09 08:46:28;;;;;;;0.40;0.40;;;;;;;;;;5046616;28;20240;-61
2023/02/09 08:48:56;;;;;;;0.40;0.40;;;;;;;;;;5051592;28;20414;-62
2023/02/09 08:51:23;;;;;;;0.30;0.30;;;;;;;;;;5045808;28;20246;-62
2023/02/09 08:53:51;;;;;;;0.93;0.73;;;;;;;;;;5052144;28;20405;-62
2023/02/09 08:56:18;;;;;;;0.30;0.30;;;;;;;;;;5045031;28;20446;-62
2023/02/09 08:58:45;;;;;;;0.40;0.40;;;;;;;;;;5053039;28;20243;-62
2023/02/09 09:01:12;;;;;;;1.03;1.03;;;;;;;;;;5044661;28;20252;-62
2023/02/09 09:03:41;;;;;;;0.50;0.50;;;;;;;;;;5053046;28;20378;-61
2023/02/09 09:06:08;;;;;;;0.30;0.30;;;;;;;;;;5042725;28;20309;-61
2023/02/09 09:08:35;;;;;;;0.30;0.30;;;;;;;;;;5053550;28;20229;-62
2023/02/09 09:11:02;;;;;;;0.23;0.23;;;;;;;;;;5042971;28;20241;-62
2023/02/09 09:13:29;;;;;;;0.20;0.20;;;;;;;;;;5054148;28;20210;-62
2023/02/09 09:15:55;;;;;;;0.20;0.20;;;;;;;;;;5042205;28;20237;-62
2023/02/09 09:18:22;;;;;;;0.33;0.33;;;;;;;;;;5055108;28;20463;-62
2023/02/09 09:20:50;;;;;;;0.20;0.20;;;;;;;;;;5041442;28;20304;-62
2023/02/09 09:23:17;;;;;;;1.50;1.37;;;;;;;;;;5055859;28;20219;-62
2023/02/09 09:25:43;;;;;;;0.40;0.40;;;;;;;;;;5040221;28;20241;-61
2023/02/09 09:28:10;;;;;;;0.20;0.20;;;;;;;;;;5056363;28;20279;-62
2023/02/09 09:30:36;;;;;;;0.20;0.20;;;;;;;;;;5039315;28;20258;-61
2023/02/09 09:33:03;;;;;;;0.20;0.20;;;;;;;;;;5057252;28;20274;-61
2023/02/09 09:35:31;;;;;;;0.67;0.67;;;;;;;;;;5038485;28;20242;-61
2023/02/09 09:37:59;;;;;;;0.20;0.20;;;;;;;;;;5057952;28;20212;-63
2023/02/09 09:40:27;;;;;;;5.67;5.30;;;;;;;;;;5037990;28;20428;-63
2023/02/09 09:42:54;;;;;;;0.20;0.20;;;;;;;;;;5058224;28;20280;-63
2023/02/09 09:45:22;;;;;;;0.10;0.10;;;;;;;;;;5036907;28;20273;-62
2023/02/09 09:47:48;;;;;;;0.20;0.20;;;;;;;;;;5058958;28;20286;-65
2023/02/09 09:50:18;;;;;;;0.10;0.10;;;;;;;;;;5035930;28;20257;-61
2023/02/09 09:52:46;;;;;;;0.30;0.30;;;;;;;;;;5059506;28;20259;-61
2023/02/09 09:55:23;;;;;;;0.13;0.13;;;;;;;;;;5035478;28;20204;-61
2023/02/09 09:57:50;;;;;;;0.40;0.40;;;;;;;;;;5058750;28;20236;-61
2023/02/09 10:00:18;;;;;;;0.10;0.10;;;;;;;;;;5036110;28;20272;-62
2023/02/09 10:02:44;;;;;;;0.87;0.87;;;;;;;;;;5059193;28;20399;-62
2023/02/09 10:05:19;;;;;;;0.10;0.10;;;;;;;;;;5035531;28;20206;-62
2023/02/09 10:07:48;;;;;;;0.10;0.10;;;;;;;;;;5058859;28;20277;-62
2023/02/09 10:10:21;;;;;;;0.10;0.10;;;;;;;;;;5035915;28;20294;-60
2023/02/09 10:12:49;;;;;;;0.10;0.10;;;;;;;;;;5058534;28;20245;-60
2023/02/09 10:15:16;;;;;;;0.10;0.10;;;;;;;;;;5035645;28;20268;-60
2023/02/09 10:17:43;;;;;;;0.43;0.43;;;;;;;;;;5059013;28;20275;-60
2023/02/09 10:20:10;;;;;;;0.10;0.10;;;;;;;;;;5034664;28;20272;-59
2023/02/09 10:22:36;;;;;;;1.20;1.10;;;;;;;;;;5059822;28;20213;-63
2023/02/09 10:25:03;;;;;;;0.77;0.77;;;;;;;;;;5044825;28;20570;-65
2023/02/09 10:27:32;;;;;;;0.10;0.10;;;;;;;;;;5049843;28;20305;-64
2023/02/09 10:30:16;;;;;;;0.57;0.57;;;;;;;;;;5044433;28;20406;-65
2023/02/09 10:32:43;;;;;;;0.10;0.10;;;;;;;;;;5044130;28;20205;-65
2023/02/09 10:35:22;;;;;;;0.27;0.27;;;;;;;;;;5034816;28;20277;-65
2023/02/09 10:37:54;;;;;;;0.10;0.10;;;;;;;;;;5058016;28;20434;-65
2023/02/09 10:40:24;;;;;;;1.83;0.83;;;;;;;;;;5035774;28;20261;-64
2023/02/09 10:42:54;;;;;;;0.10;0.10;;;;;;;;;;5057486;28;20445;-65
2023/02/09 10:45:24;;;;;;;0.10;0.10;;;;;;;;;;5035571;28;20202;-65
2023/02/09 10:47:56;;;;;;;0.10;0.10;;;;;;;;;;5057650;28;20281;-64
2023/02/09 10:50:23;;;;;;;0.10;0.10;;;;;;;;;;5036067;28;20250;-64
2023/02/09 10:52:57;;;;;;;0.10;0.10;;;;;;;;;;5057479;28;20278;-64
2023/02/09 10:55:25;;;;;;;0.10;0.10;;;;;;;;;;5035910;28;20214;-64
2023/02/09 10:58:03;;;;;;;0.20;0.20;;;;;;;;;;5057246;28;20248;-64
2023/02/09 11:00:32;;;;;;;4.18;4.00;;;;;;;;;;5036901;28;20261;-65
2023/02/09 11:03:00;;;;;;;0.32;0.32;;;;;;;;;;5056441;28;20458;-65
2023/02/09 11:05:29;;;;;;;0.10;0.10;;;;;;;;;;5036230;28;20249;-65
2023/02/09 11:07:57;;;;;;;0.50;0.50;;;;;;;;;;5055805;28;20235;-65
2023/02/09 11:10:25;;;;;;;0.10;0.10;;;;;;;;;;5035965;28;20270;-64
2023/02/09 11:12:53;;;;;;;0.10;0.10;;;;;;;;;;5056995;28;20219;-65
2023/02/09 11:15:22;;;;;;;0.30;0.30;;;;;;;;;;5035389;28;20269;-65
2023/02/09 11:17:50;;;;;;;0.10;0.10;;;;;;;;;;5057448;28;20453;-66
2023/02/09 11:20:23;;;;;;;0.08;0.08;;;;;;;;;;5034594;28;20254;-66
2023/02/09 11:23:04;;;;;;;0.10;0.10;;;;;;;;;;5057128;28;20213;-66
2023/02/09 11:25:33;;;;;;;0.10;0.10;;;;;;;;;;5036394;28;20269;-66
2023/02/09 11:28:11;;;;;;;0.80;0.68;;;;;;;;;;5055538;28;20207;-64
2023/02/09 11:30:46;;;;;;;0.20;0.20;;;;;;;;;;5037374;28;20310;-64
2023/02/09 11:33:16;;;;;;;0.30;0.30;;;;;;;;;;5054052;28;20372;-65
2023/02/09 11:35:47;;;;;;;4.82;1.08;;;;;;;;;;5038044;28;20355;-64
2023/02/09 11:38:15;;;;;;;0.73;0.73;;;;;;;;;;5053880;28;20213;-64
2023/02/09 11:40:43;;;;;;;0.30;0.30;;;;;;;;;;5037615;28;20302;-64
2023/02/09 11:43:16;;;;;;;0.83;0.43;;;;;;;;;;5054342;28;20275;-65
2023/02/09 11:45:43;;;;;;;0.43;0.43;;;;;;;;;;5037809;28;20307;-65
2023/02/09 11:48:11;;;;;;;0.10;0.10;;;;;;;;;;5054271;28;20215;-65
2023/02/09 11:50:41;;;;;;;0.10;0.10;;;;;;;;;;5037074;28;20316;-64
2023/02/09 11:53:12;;;;;;;13.90;2.80;;;;;;;;;;5054675;28;20285;-65
2023/02/09 11:55:41;;;;;;;0.10;0.10;;;;;;;;;;5037220;28;20254;-65
2023/02/09 11:58:13;;;;;;;0.10;0.10;;;;;;;;;;5054632;28;20218;-65
2023/02/09 12:00:43;;;;;;;0.37;0.37;;;;;;;;;;5036991;28;20608;-65
2023/02/09 12:03:11;;;;;;;0.40;0.40;;;;;;;;;;5054780;28;20238;-65
2023/02/09 12:05:38;;;;;;;0.20;0.20;;;;;;;;;;5037177;28;20312;-64
2023/02/09 12:08:10;;;;;;;1.17;1.07;;;;;;;;;;5054911;28;20216;-65
2023/02/09 12:10:41;;;;;;;0.10;0.10;;;;;;;;;;5036754;28;20238;-64
2023/02/09 12:13:13;;;;;;;0.10;0.10;;;;;;;;;;5054227;28;20278;-64
2023/02/09 12:15:44;;;;;;;0.10;0.10;;;;;;;;;;5037287;28;20491;-65
2023/02/09 12:18:12;;;;;;;0.13;0.13;;;;;;;;;;5054019;28;20505;-64
2023/02/09 12:20:49;;;;;;;0.30;0.30;;;;;;;;;;5039387;28;20309;-64
2023/02/09 12:23:18;;;;;;;0.10;0.10;;;;;;;;;;5057246;28;20243;-63
2023/02/09 12:25:48;;;;;;;3.93;1.13;;;;;;;;;;5041345;28;20304;-63
2023/02/09 12:28:33;;;;;;;1.33;0.97;;;;;;;;;;5056862;28;20532;-64
2023/02/09 12:31:05;;;;;;;1.50;1.43;;;;;;;;;;5043014;28;20575;-64
2023/02/09 12:33:33;;;;;;;0.20;0.20;;;;;;;;;;5054760;28;20233;-64
2023/02/09 12:36:01;;;;;;;0.20;0.20;;;;;;;;;;5043340;28;20305;-64
2023/02/09 12:38:41;;;;;;;0.10;0.10;;;;;;;;;;5055253;28;20229;-64
2023/02/09 12:41:08;;;;;;;0.10;0.10;;;;;;;;;;5044255;28;20240;-65
2023/02/09 12:43:35;;;;;;;0.10;0.10;;;;;;;;;;5054159;28;20214;-63
2023/02/09 12:46:14;;;;;;;1.43;1.40;;;;;;;;;;5043181;28;20246;-64
2023/02/09 12:48:52;;;;;;;0.63;0.63;;;;;;;;;;5053410;28;20254;-64
2023/02/09 12:51:36;;;;;;;0.10;0.10;;;;;;;;;;5045268;28;20312;-65
2023/02/09 12:54:25;;;;;;;0.20;0.20;;;;;;;;;;5050636;28;20207;-65
2023/02/09 12:56:52;;;;;;;0.20;0.20;;;;;;;;;;5049538;28;20249;-64
2023/02/09 12:59:20;;;;;;;0.10;0.10;;;;;;;;;;5048230;28;20248;-63
2023/02/09 13:02:04;;;;;;;0.10;0.10;;;;;;;;;;5048776;28;20249;-64
2023/02/09 13:04:34;;;;;;;0.20;0.20;;;;;;;;;;5036003;28;20232;-64
2023/02/09 13:07:01;;;;;;;0.10;0.10;;;;;;;;;;5050526;28;20607;-63
2023/02/09 13:09:29;;;;;;;1.30;1.30;;;;;;;;;;5046581;28;20204;-63
2023/02/09 13:12:00;;;;;;;0.13;0.13;;;;;;;;;;5049908;28;20242;-64
2023/02/09 13:14:26;;;;;;;0.10;0.10;;;;;;;;;;5047158;28;20496;-67
2023/02/09 13:17:10;;;;;;;1.43;1.33;;;;;;;;;;5049485;28;20263;-66
2023/02/09 13:19:58;;;;;;;0.30;0.30;;;;;;;;;;5046202;28;20231;-67
2023/02/09 13:22:35;;;;;;;0.10;0.10;;;;;;;;;;5051237;28;20248;-66
2023/02/09 13:25:08;;;;;;;0.57;0.57;;;;;;;;;;5045768;28;20195;-67
2023/02/09 13:27:42;;;;;;;4.53;4.23;;;;;;;;;;5034543;28;20272;-66
2023/02/09 13:30:13;;;;;;;1.20;0.83;;;;;;;;;;5035097;28;20229;-66
2023/02/09 13:32:47;;;;;;;0.10;0.10;;;;;;;;;;5060377;28;20460;-66
2023/02/09 13:35:20;;;;;;;0.10;0.10;;;;;;;;;;5036354;28;20224;-67
2023/02/09 13:37:47;;;;;;;0.10;0.10;;;;;;;;;;5059414;28;20208;-66
2023/02/09 13:40:15;;;;;;;3.13;3.03;;;;;;;;;;5036159;28;20242;-67
2023/02/09 13:42:50;;;;;;;0.10;0.10;;;;;;;;;;5059674;28;20277;-66
2023/02/09 13:45:18;;;;;;;0.10;0.10;;;;;;;;;;5036495;28;20269;-66
2023/02/09 13:47:44;;;;;;;0.10;0.10;;;;;;;;;;5059517;28;20276;-67
2023/02/09 13:50:13;;;;;;;0.10;0.10;;;;;;;;;;5035571;28;20248;-66
2023/02/09 13:52:41;;;;;;;0.13;0.13;;;;;;;;;;5060005;28;20281;-66
2023/02/09 13:55:09;;;;;;;0.20;0.20;;;;;;;;;;5037296;28;20434;-66
2023/02/09 13:57:36;;;;;;;0.10;0.10;;;;;;;;;;5060091;28;20226;-66
2023/02/09 14:00:07;;;;;;;0.10;0.10;;;;;;;;;;5045404;28;20233;-66
2023/02/09 14:02:34;;;;;;;0.10;0.10;;;;;;;;;;5033910;28;20280;-66
2023/02/09 14:05:01;;;;;;;0.20;0.20;;;;;;;;;;5045249;28;20255;-66
2023/02/09 14:07:31;;;;;;;0.10;0.10;;;;;;;;;;5050218;28;20244;-66
2023/02/09 14:10:01;;;;;;;0.10;0.10;;;;;;;;;;5045211;28;20464;-67
2023/02/09 14:17:58;;;;;;;2.33;0.93;;;;;;;;;;5056882;28;20383;-65
2023/02/09 14:20:25;;;;;;;0.10;0.10;;;;;;;;;;5036690;28;20270;-66
2023/02/09 14:22:55;;;;;;;0.13;0.13;;;;;;;;;;5057964;28;20448;-65
2023/02/09 14:25:24;;;;;;;0.17;0.17;;;;;;;;;;5036468;28;20232;-65
2023/02/09 14:27:50;;;;;;;0.10;0.10;;;;;;;;;;5057892;28;20218;-65
2023/02/09 14:30:19;;;;;;;0.20;0.20;;;;;;;;;;5035436;28;20224;-65
2023/02/09 14:32:47;;;;;;;0.30;0.30;;;;;;;;;;5058304;28;20548;-66
2023/02/09 14:35:17;;;;;;;2.23;2.23;;;;;;;;;;5034885;28;20208;-66
2023/02/09 14:37:44;;;;;;;0.10;0.10;;;;;;;;;;5058376;28;20211;-66
2023/02/09 14:40:19;;;;;;;0.10;0.10;;;;;;;;;;5034675;28;20235;-65
2023/02/09 14:42:58;;;;;;;0.13;0.13;;;;;;;;;;5057093;28;20203;-66
2023/02/09 14:45:29;;;;;;;0.10;0.10;;;;;;;;;;5036551;28;20223;-66
2023/02/09 14:47:55;;;;;;;0.10;0.10;;;;;;;;;;5056796;28;20247;-65
2023/02/09 14:50:23;;;;;;;0.10;0.10;;;;;;;;;;5035898;28;20295;-65
2023/02/09 14:52:51;;;;;;;0.20;0.20;;;;;;;;;;5057588;28;20441;-65
2023/02/09 14:55:20;;;;;;;0.10;0.10;;;;;;;;;;5035444;28;20277;-64
2023/02/09 14:57:46;;;;;;;0.10;0.10;;;;;;;;;;5057655;28;20237;-65
2023/02/09 15:00:18;;;;;;;7.93;7.20;;;;;;;;;;5034509;28;20231;-66
2023/02/09 15:02:45;;;;;;;0.10;0.10;;;;;;;;;;5057956;28;20281;-66